createdAt,value
2023-01-01T00:02:37.049Z,78.32
2023-01-01T00:07:35.244Z,78.35
2023-01-01T00:12:34.489Z,78.51
2023-01-01T00:17:32.312Z,78.37
2023-01-01T00:27:52.501Z,79.29
2023-01-01T00:32:54.616Z,79.12
2023-01-01T00:37:54.098Z,78.72
2023-01-01T00:42:53.428Z,79.14
2023-01-01T00:47:52.022Z,78.96
2023-01-01T00:52:50.095Z,78.64
2023-01-01T00:57:50.748Z,79.04
2023-01-01T01:02:50.181Z,78.67
2023-01-01T01:07:48.017Z,78.15
2023-01-01T01:12:45.813Z,78.29
2023-01-01T01:17:43.673Z,78.78
2023-01-01T01:22:42.853Z,78.92
2023-01-01T01:27:40.751Z,78.33
2023-01-01T01:32:38.615Z,78.15
2023-01-01T01:37:36.469Z,78.13
2023-01-01T01:42:35.691Z,78.49
2023-01-01T01:47:35.050Z,78.47
2023-01-01T01:52:33.984Z,78.07
2023-01-01T01:57:32.845Z,78.15
2023-01-01T02:02:34.661Z,78.15
2023-01-01T02:07:34.895Z,78.38
2023-01-01T02:12:32.837Z,78.75
2023-01-01T02:17:39.051Z,78.86
2023-01-01T02:22:55.808Z,78.79
2023-01-01T02:28:01.560Z,78.95
2023-01-01T02:33:03.879Z,78.99
2023-01-01T02:38:05.102Z,79.01
2023-01-01T02:43:03.657Z,79.22
2023-01-01T02:48:06.446Z,79.59
2023-01-01T02:53:08.859Z,79.52
2023-01-01T02:58:26.240Z,79.29
2023-01-01T03:03:28.975Z,79.42
2023-01-01T03:08:31.216Z,79.75
2023-01-01T03:13:33.449Z,79.89
2023-01-01T03:18:35.022Z,80.39
2023-01-01T03:23:36.883Z,81.12
2023-01-01T03:28:36.825Z,80.83
2023-01-01T03:33:40.707Z,81.09
2023-01-01T03:38:40.557Z,82.47
2023-01-01T03:43:42.054Z,81.62
2023-01-01T03:49:02.075Z,81.65
2023-01-01T03:54:03.496Z,81.68
2023-01-01T03:59:03.296Z,81.66
2023-01-01T04:04:04.557Z,81.73
2023-01-01T04:09:04.174Z,81.94
2023-01-01T04:14:01.989Z,81.51
2023-01-01T04:18:59.825Z,81.29
2023-01-01T04:23:59.014Z,81.33
2023-01-01T04:28:56.852Z,80.72
2023-01-01T04:33:54.949Z,81.61
2023-01-01T04:38:52.937Z,82.21
2023-01-01T04:43:52.211Z,82.12
2023-01-01T04:48:50.239Z,82.24
2023-01-01T04:53:48.499Z,82.25
2023-01-01T04:58:46.870Z,82.42
2023-01-01T05:03:46.099Z,81.99
2023-01-01T05:08:44.749Z,81.25
2023-01-01T05:13:43.456Z,81.13
2023-01-01T05:18:41.425Z,81.32
2023-01-01T05:23:40.641Z,80.99
2023-01-01T05:28:38.649Z,81.08
2023-01-01T05:33:36.818Z,81.30
2023-01-01T05:38:34.857Z,80.36
2023-01-01T05:43:34.124Z,80.98
2023-01-01T05:48:32.236Z,81.14
2023-01-01T05:53:30.859Z,80.39
2023-01-01T05:58:29.289Z,80.18
2023-01-01T06:03:28.503Z,79.42
2023-01-01T06:08:26.323Z,79.30
2023-01-01T06:13:24.116Z,79.27
2023-01-01T06:18:21.979Z,78.53
2023-01-01T06:23:21.362Z,78.12
2023-01-01T06:28:19.224Z,75.01
2023-01-01T06:33:17.044Z,71.74
2023-01-01T06:38:14.873Z,70.01
2023-01-01T06:43:14.062Z,67.32
2023-01-01T06:48:11.942Z,64.53
2023-01-01T06:53:09.742Z,62.66
2023-01-01T06:58:09.997Z,59.69
2023-01-01T07:03:10.875Z,58.55
2023-01-01T07:08:08.869Z,54.73
2023-01-01T07:13:06.670Z,52.74
2023-01-01T07:18:04.594Z,51.49
2023-01-01T07:23:03.758Z,49.45
2023-01-01T07:28:01.587Z,48.15
2023-01-01T07:32:59.462Z,47.92
2023-01-01T07:37:57.343Z,50.41
2023-01-01T07:42:56.553Z,49.21
2023-01-01T07:47:55.547Z,50.83
2023-01-01T07:52:53.410Z,50.05
2023-01-01T07:57:51.252Z,50.66
2023-01-01T08:02:50.735Z,48.77
2023-01-01T08:07:48.890Z,46.06
2023-01-01T08:12:47.100Z,45.47
2023-01-01T08:17:47.224Z,43.46
2023-01-01T08:22:46.912Z,42.80
2023-01-01T08:27:44.730Z,42.49
2023-01-01T08:32:43.184Z,40.37
2023-01-01T08:37:41.027Z,39.17
2023-01-01T08:42:40.473Z,38.95
2023-01-01T08:47:38.365Z,38.54
2023-01-01T08:52:36.187Z,37.63
2023-01-01T08:57:33.995Z,37.71
2023-01-01T09:02:33.592Z,38.00
2023-01-01T09:07:32.135Z,37.47
2023-01-01T09:12:29.975Z,36.10
2023-01-01T09:17:27.803Z,38.90
2023-01-01T09:22:27.990Z,38.59
2023-01-01T09:27:25.806Z,37.57
2023-01-01T09:32:24.199Z,37.00
2023-01-01T09:37:22.011Z,36.60
2023-01-01T09:42:30.694Z,36.45
2023-01-01T09:47:31.661Z,35.34
2023-01-01T09:52:36.938Z,34.86
2023-01-01T09:57:37.265Z,34.37
2023-01-01T10:02:40.909Z,34.29
2023-01-01T10:07:42.927Z,34.29
2023-01-01T10:12:47.322Z,33.54
2023-01-01T10:17:47.585Z,33.39
2023-01-01T10:22:47.768Z,33.96
2023-01-01T10:27:53.852Z,33.00
2023-01-01T10:32:56.513Z,32.88
2023-01-01T10:37:54.394Z,32.80
2023-01-01T10:42:54.786Z,32.82
2023-01-01T10:48:11.549Z,33.20
2023-01-01T10:53:19.844Z,33.06
2023-01-01T10:58:28.517Z,32.02
2023-01-01T11:03:26.502Z,31.59
2023-01-01T11:08:29.210Z,31.43
2023-01-01T11:13:29.312Z,31.69
2023-01-01T11:18:28.857Z,31.31
2023-01-01T11:23:31.133Z,30.46
2023-01-01T11:28:31.831Z,29.93
2023-01-01T11:33:31.772Z,29.71
2023-01-01T11:38:30.538Z,30.99
2023-01-01T11:43:29.300Z,33.09
2023-01-01T11:48:30.167Z,32.47
2023-01-01T11:53:29.760Z,31.95
2023-01-01T11:58:32.180Z,32.19
2023-01-01T12:03:34.931Z,30.82
2023-01-01T12:08:34.982Z,31.47
2023-01-01T12:13:36.386Z,31.34
2023-01-01T12:18:38.613Z,31.19
2023-01-01T12:23:37.315Z,31.92
2023-01-01T12:28:41.706Z,31.93
2023-01-01T12:33:48.389Z,31.64
2023-01-01T12:39:12.578Z,32.53
2023-01-01T12:44:16.491Z,32.92
2023-01-01T12:49:23.602Z,32.44
2023-01-01T12:54:37.910Z,32.77
2023-01-01T12:59:38.124Z,33.08
2023-01-01T13:04:37.752Z,34.26
2023-01-01T13:09:37.786Z,35.35
2023-01-01T13:14:38.971Z,36.01
2023-01-01T13:19:38.468Z,35.69
2023-01-01T13:24:36.335Z,36.97
2023-01-01T13:29:35.223Z,39.09
2023-01-01T13:34:35.446Z,40.52
2023-01-01T13:39:53.613Z,40.61
2023-01-01T13:44:52.798Z,41.40
2023-01-01T13:50:04.836Z,41.60
2023-01-01T13:55:29.674Z,42.79
2023-01-01T14:00:32.662Z,43.56
2023-01-01T14:05:32.703Z,44.29
2023-01-01T14:10:33.319Z,44.83
2023-01-01T14:15:33.433Z,45.42
2023-01-01T14:20:33.851Z,45.88
2023-01-01T14:25:31.750Z,46.35
2023-01-01T14:30:32.192Z,46.73
2023-01-01T14:35:31.711Z,47.94
2023-01-01T14:40:29.658Z,48.18
2023-01-01T14:45:27.815Z,48.90
2023-01-01T14:50:28.102Z,49.04
2023-01-01T14:55:29.013Z,49.08
2023-01-01T15:00:28.488Z,49.88
2023-01-01T15:05:34.833Z,49.33
2023-01-01T15:10:35.484Z,49.74
2023-01-01T15:15:41.310Z,50.41
2023-01-01T15:20:39.189Z,51.02
2023-01-01T15:25:38.550Z,51.55
2023-01-01T15:30:37.266Z,52.28
2023-01-01T15:35:38.310Z,52.81
2023-01-01T15:40:37.235Z,53.34
2023-01-01T15:45:38.016Z,54.02
2023-01-01T15:50:38.231Z,54.65
2023-01-01T15:55:38.091Z,55.16
2023-01-01T16:00:39.405Z,55.51
2023-01-01T16:05:37.264Z,56.74
2023-01-01T16:10:35.170Z,57.24
2023-01-01T16:15:33.087Z,58.61
2023-01-01T16:20:32.306Z,58.84
2023-01-01T16:25:30.124Z,58.54
2023-01-01T16:30:28.004Z,59.41
2023-01-01T16:35:26.793Z,61.10
2023-01-01T16:40:32.631Z,62.23
2023-01-01T16:45:36.640Z,62.40
2023-01-01T16:50:36.505Z,62.68
2023-01-01T16:55:35.711Z,62.65
2023-01-01T17:00:33.823Z,62.60
2023-01-01T17:05:32.018Z,63.72
2023-01-01T17:10:29.932Z,64.06
2023-01-01T17:15:29.280Z,64.60
2023-01-01T17:20:27.289Z,64.56
2023-01-01T17:25:25.244Z,64.62
2023-01-01T17:30:23.172Z,64.77
2023-01-01T17:35:22.593Z,65.76
2023-01-01T17:40:20.520Z,65.55
2023-01-01T17:45:18.452Z,65.63
2023-01-01T17:50:16.713Z,65.83
2023-01-01T17:55:16.232Z,66.11
2023-01-01T18:00:14.526Z,66.24
2023-01-01T18:05:13.253Z,66.41
2023-01-01T18:10:11.283Z,66.57
2023-01-01T18:15:11.231Z,66.52
2023-01-01T18:20:12.854Z,66.94
2023-01-01T18:25:10.939Z,66.89
2023-01-01T18:30:10.894Z,66.91
2023-01-01T18:35:09.420Z,67.48
2023-01-01T18:40:12.168Z,67.40
2023-01-01T18:45:16.265Z,67.46
2023-01-01T18:50:25.111Z,67.81
2023-01-01T18:55:29.704Z,67.76
2023-01-01T19:00:31.306Z,67.88
2023-01-01T19:05:30.557Z,68.34
2023-01-01T19:10:34.204Z,68.18
2023-01-01T19:15:33.403Z,68.48
2023-01-01T19:20:31.314Z,68.84
2023-01-01T19:25:35.627Z,68.52
2023-01-01T19:30:35.220Z,68.53
2023-01-01T19:35:33.241Z,69.06
2023-01-01T19:40:31.256Z,69.48
2023-01-01T19:45:29.142Z,69.50
2023-01-01T19:50:28.414Z,69.71
2023-01-01T19:55:26.965Z,69.52
2023-01-01T20:00:27.501Z,69.81
2023-01-01T20:05:28.948Z,69.49
2023-01-01T20:10:31.618Z,69.95
2023-01-01T20:15:29.429Z,70.16
2023-01-01T20:20:27.390Z,69.94
2023-01-01T20:25:25.402Z,70.73
2023-01-01T20:30:24.783Z,70.81
2023-01-01T20:35:37.656Z,70.65
2023-01-01T20:40:35.497Z,71.29
2023-01-01T20:45:35.057Z,71.22
2023-01-01T20:50:32.974Z,70.80
2023-01-01T20:55:31.100Z,70.91
2023-01-01T21:00:29.017Z,71.18
2023-01-01T21:05:28.675Z,70.98
2023-01-01T21:10:29.149Z,71.00
2023-01-01T21:15:27.101Z,70.92
2023-01-01T21:21:08.715Z,71.46
2023-01-01T21:26:16.097Z,71.74
2023-01-01T21:31:15.143Z,71.62
2023-01-01T21:36:17.299Z,71.79
2023-01-01T21:41:19.320Z,71.74
2023-01-01T21:52:48.296Z,71.80
2023-01-01T21:57:47.516Z,71.97
2023-01-01T22:02:46.812Z,72.38
2023-01-01T22:07:57.626Z,72.51
2023-01-01T22:13:00.345Z,72.77
2023-01-01T22:18:06.928Z,72.55
2023-01-01T22:23:11.896Z,72.26
2023-01-01T22:28:20.345Z,72.44
2023-01-01T22:33:19.479Z,72.47
2023-01-01T22:38:19.546Z,72.83
2023-01-01T22:43:20.719Z,72.87
2023-01-01T22:48:21.556Z,73.79
2023-01-01T22:53:19.383Z,73.76
2023-01-01T22:58:17.192Z,74.03
2023-01-01T23:03:16.464Z,73.95
2023-01-01T23:08:15.412Z,74.45
2023-01-01T23:13:31.137Z,73.83
2023-01-01T23:18:30.616Z,73.97
2023-01-01T23:23:28.907Z,74.18
2023-01-01T23:28:27.505Z,73.93
2023-01-01T23:33:25.426Z,74.34
2023-01-01T23:38:27.418Z,74.51
2023-01-01T23:43:25.244Z,74.71
2023-01-01T23:48:23.656Z,74.37
2023-01-01T23:53:21.505Z,74.75
2023-01-01T23:58:20.754Z,75.23
